createdAt,value
2019-02-21T00:02:22.451Z,18.95
2019-02-21T00:04:54.121Z,19.03
2019-02-21T00:07:25.951Z,19.03
2019-02-21T00:09:57.476Z,18.94
2019-02-21T00:12:28.959Z,18.94
2019-02-21T00:15:00.762Z,19.08
2019-02-21T00:17:32.267Z,19.02
2019-02-21T00:20:04.510Z,19.13
2019-02-21T00:22:36.416Z,19.14
2019-02-21T00:25:07.943Z,19.14
2019-02-21T00:27:39.524Z,19.11
2019-02-21T00:30:11.147Z,19.14
2019-02-21T00:32:42.686Z,19.17
2019-02-21T00:35:14.413Z,19.17
2019-02-21T00:37:46.202Z,19.21
2019-02-21T00:40:17.744Z,19.18
2019-02-21T00:42:49.602Z,19.18
2019-02-21T00:45:22.339Z,19.22
2019-02-21T00:47:53.837Z,19.22
2019-02-21T00:50:26.676Z,19.27
2019-02-21T00:52:58.377Z,19.20
2019-02-21T00:55:30.226Z,19.16
2019-02-21T00:58:02.095Z,19.16
2019-02-21T01:00:33.706Z,19.06
2019-02-21T01:03:05.534Z,18.97
2019-02-21T01:05:36.925Z,18.95
2019-02-21T01:08:09.774Z,18.95
2019-02-21T01:10:41.300Z,18.90
2019-02-21T01:13:15.700Z,18.90
2019-02-21T01:15:47.577Z,18.82
2019-02-21T01:18:19.268Z,18.90
2019-02-21T01:20:50.662Z,18.79
2019-02-21T01:23:22.214Z,18.80
2019-02-21T01:25:53.936Z,18.80
2019-02-21T01:28:27.125Z,18.86
2019-02-21T01:31:00.060Z,18.75
2019-02-21T01:33:31.333Z,18.75
2019-02-21T01:36:03.096Z,18.84
2019-02-21T01:38:34.728Z,18.76
2019-02-21T01:41:06.652Z,18.75
2019-02-21T01:43:38.111Z,18.87
2019-02-21T01:46:10.155Z,18.87
2019-02-21T01:48:41.649Z,18.79
2019-02-21T01:51:13.216Z,19.01
2019-02-21T01:53:45.020Z,18.91
2019-02-21T01:56:16.447Z,18.91
2019-02-21T01:58:48.200Z,19.03
2019-02-21T02:01:19.533Z,18.99
2019-02-21T02:03:51.005Z,18.91
2019-02-21T02:09:21.604Z,19.29
2019-02-21T02:11:53.022Z,19.20
2019-02-21T02:14:24.826Z,19.23
2019-02-21T02:16:56.837Z,19.23
2019-02-21T02:19:28.419Z,19.30
2019-02-21T02:22:00.380Z,19.39
2019-02-21T02:24:32.289Z,19.17
2019-02-21T02:27:04.111Z,19.20
2019-02-21T02:29:36.002Z,19.24
2019-02-21T02:32:09.546Z,20.84
2019-02-21T02:34:41.001Z,20.84
2019-02-21T02:37:12.690Z,20.71
2019-02-21T02:39:44.455Z,21.03
2019-02-21T02:42:17.660Z,20.88
2019-02-21T02:44:49.395Z,20.46
2019-02-21T02:47:21.870Z,20.23
2019-02-21T02:49:54.428Z,20.23
2019-02-21T02:52:26.230Z,20.84
2019-02-21T02:54:58.035Z,20.01
2019-02-21T02:57:30.745Z,20.69
2019-02-21T03:00:02.406Z,20.51
2019-02-21T03:02:34.171Z,20.47
2019-02-21T03:05:05.838Z,20.56
2019-02-21T03:07:37.538Z,20.83
2019-02-21T03:10:10.574Z,20.54
2019-02-21T03:12:42.477Z,20.54
2019-02-21T03:15:15.377Z,20.73
2019-02-21T03:17:47.221Z,20.43
2019-02-21T03:20:19.045Z,20.35
2019-02-21T03:22:50.802Z,20.35
2019-02-21T03:25:22.466Z,20.90
2019-02-21T03:27:54.140Z,20.90
2019-02-21T03:30:25.852Z,20.95
2019-02-21T03:32:57.610Z,20.93
2019-02-21T03:35:29.036Z,20.85
2019-02-21T03:38:00.811Z,20.98
2019-02-21T03:40:32.656Z,21.18
2019-02-21T03:43:04.339Z,20.89
2019-02-21T03:45:36.340Z,20.98
2019-02-21T03:48:10.537Z,21.14
2019-02-21T03:50:42.428Z,21.27
2019-02-21T03:53:15.425Z,21.43
2019-02-21T03:55:47.005Z,21.43
2019-02-21T03:58:18.766Z,21.18
2019-02-21T04:00:50.486Z,21.24
2019-02-21T04:03:25.304Z,21.45
2019-02-21T04:05:57.547Z,21.45
2019-02-21T04:08:29.303Z,21.68
2019-02-21T04:11:01.654Z,21.86
2019-02-21T04:13:33.240Z,21.63
2019-02-21T04:16:05.518Z,21.81
2019-02-21T04:18:38.256Z,21.81
2019-02-21T04:21:09.986Z,22.06
2019-02-21T04:23:41.803Z,22.37
2019-02-21T04:26:13.557Z,22.37
2019-02-21T04:28:46.446Z,22.24
2019-02-21T04:31:18.381Z,22.67
2019-02-21T04:33:50.249Z,22.67
2019-02-21T04:36:23.465Z,22.63
2019-02-21T04:38:56.612Z,22.65
2019-02-21T04:41:28.620Z,22.76
2019-02-21T04:44:00.558Z,22.83
2019-02-21T04:46:32.387Z,23.06
2019-02-21T04:49:03.980Z,23.16
2019-02-21T04:51:36.017Z,23.16
2019-02-21T04:54:07.583Z,23.24
2019-02-21T04:56:39.345Z,23.45
2019-02-21T04:59:10.975Z,23.55
2019-02-21T05:01:42.724Z,23.27
2019-02-21T05:04:14.647Z,23.35
2019-02-21T05:06:46.480Z,23.86
2019-02-21T05:09:18.649Z,23.84
2019-02-21T05:11:50.460Z,23.84
2019-02-21T05:14:22.217Z,24.07
2019-02-21T05:16:54.077Z,24.06
2019-02-21T05:19:25.862Z,23.92
2019-02-21T05:21:57.983Z,23.65
2019-02-21T05:24:29.886Z,23.65
2019-02-21T05:27:09.905Z,23.95
2019-02-21T05:29:41.509Z,23.95
2019-02-21T05:32:24.616Z,24.59
2019-02-21T05:35:21.352Z,24.65
2019-02-21T05:38:10.442Z,25.16
2019-02-21T05:41:04.461Z,25.16
2019-02-21T05:43:58.362Z,25.05
2019-02-21T05:46:48.793Z,24.92
2019-02-21T05:49:33.054Z,24.92
2019-02-21T05:52:22.118Z,25.51
2019-02-21T05:54:58.878Z,25.05
2019-02-21T05:57:36.922Z,25.19
2019-02-21T06:00:21.966Z,25.48
2019-02-21T06:03:12.258Z,25.48
2019-02-21T06:05:54.620Z,25.43
2019-02-21T06:08:46.148Z,25.43
2019-02-21T06:11:39.523Z,25.44
2019-02-21T06:14:36.173Z,25.61
2019-02-21T06:17:41.818Z,25.32
2019-02-21T06:20:35.300Z,25.63
2019-02-21T06:23:25.123Z,25.80
2019-02-21T06:26:22.032Z,25.56
2019-02-21T06:28:59.403Z,25.84
2019-02-21T06:31:31.227Z,25.95
2019-02-21T06:34:03.089Z,25.79
2019-02-21T06:36:36.799Z,25.79
2019-02-21T06:39:10.914Z,26.08
2019-02-21T06:41:43.177Z,26.07
2019-02-21T06:44:15.497Z,26.11
2019-02-21T06:46:47.811Z,26.11
2019-02-21T06:49:19.855Z,26.34
2019-02-21T06:51:52.002Z,26.61
2019-02-21T06:54:24.660Z,26.61
2019-02-21T06:56:57.156Z,26.65
2019-02-21T06:59:29.848Z,26.78
2019-02-21T07:02:02.588Z,26.78
2019-02-21T07:04:35.322Z,26.59
2019-02-21T07:07:08.050Z,26.36
2019-02-21T07:09:40.647Z,26.63
2019-02-21T07:12:13.007Z,26.63
2019-02-21T07:14:45.557Z,26.60
2019-02-21T07:17:17.884Z,26.60
2019-02-21T07:19:50.231Z,26.81
2019-02-21T07:22:22.755Z,26.81
2019-02-21T07:24:59.549Z,26.90
2019-02-21T07:27:32.140Z,26.90
2019-02-21T07:30:06.266Z,26.74
2019-02-21T07:32:39.578Z,26.99
2019-02-21T07:35:12.528Z,27.09
2019-02-21T07:37:45.410Z,27.09
2019-02-21T07:40:20.373Z,26.57
2019-02-21T07:42:52.596Z,26.99
2019-02-21T07:45:25.453Z,26.99
2019-02-21T07:47:58.477Z,27.09
2019-02-21T07:50:31.144Z,27.32
2019-02-21T07:53:04.162Z,27.20
2019-02-21T07:55:36.797Z,27.12
2019-02-21T07:58:09.623Z,27.06
2019-02-21T08:00:44.421Z,26.88
2019-02-21T08:03:29.532Z,27.17
2019-02-21T08:05:51.723Z,27.22
2019-02-21T08:08:32.325Z,27.23
2019-02-21T08:11:07.127Z,27.25
2019-02-21T08:13:39.810Z,27.27
2019-02-21T08:16:12.625Z,27.14
2019-02-21T08:18:45.235Z,27.25
2019-02-21T08:21:17.559Z,26.99
2019-02-21T08:23:50.993Z,27.32
2019-02-21T08:26:23.083Z,27.32
2019-02-21T08:28:55.227Z,27.29
2019-02-21T08:31:28.280Z,27.03
2019-02-21T08:34:07.104Z,27.03
2019-02-21T08:36:39.409Z,27.12
2019-02-21T08:39:12.463Z,27.47
2019-02-21T08:41:44.674Z,27.56
2019-02-21T08:44:16.694Z,27.36
2019-02-21T08:46:48.979Z,27.36
2019-02-21T08:49:20.991Z,27.78
2019-02-21T08:51:55.135Z,27.78
2019-02-21T08:54:27.206Z,27.62
2019-02-21T08:56:59.747Z,27.62
2019-02-21T08:59:32.092Z,27.66
2019-02-21T09:02:05.163Z,27.44
2019-02-21T09:04:37.382Z,27.69
2019-02-21T09:07:09.550Z,27.69
2019-02-21T09:09:41.946Z,27.47
2019-02-21T09:12:14.237Z,27.32
2019-02-21T09:14:46.918Z,27.47
2019-02-21T09:17:19.053Z,27.47
2019-02-21T09:19:51.498Z,27.55
2019-02-21T09:22:23.723Z,27.39
2019-02-21T09:24:56.010Z,27.56
2019-02-21T09:27:30.499Z,27.56
2019-02-21T09:30:05.122Z,27.54
2019-02-21T09:32:37.165Z,27.31
2019-02-21T09:35:08.998Z,27.65
2019-02-21T09:37:40.946Z,27.65
2019-02-21T09:40:13.595Z,27.51
2019-02-21T09:42:45.456Z,27.51
2019-02-21T09:45:20.296Z,27.48
2019-02-21T09:47:52.399Z,27.41
2019-02-21T09:50:24.228Z,27.41
2019-02-21T09:52:55.921Z,27.47
2019-02-21T09:55:29.688Z,27.71
2019-02-21T09:58:01.440Z,27.65
2019-02-21T10:00:35.898Z,27.65
2019-02-21T10:03:07.023Z,27.53
2019-02-21T10:05:38.787Z,27.44
2019-02-21T10:08:10.696Z,27.58
2019-02-21T10:10:42.611Z,27.51
2019-02-21T10:13:14.547Z,27.51
2019-02-21T10:15:47.082Z,27.68
2019-02-21T10:18:19.013Z,27.51
2019-02-21T10:20:50.955Z,27.51
2019-02-21T10:23:24.296Z,27.67
2019-02-21T10:25:56.198Z,27.86
2019-02-21T10:28:28.114Z,27.79
2019-02-21T10:30:59.981Z,27.79
2019-02-21T10:33:32.905Z,27.75
2019-02-21T10:36:04.758Z,27.63
2019-02-21T10:38:36.497Z,27.52
2019-02-21T10:41:08.933Z,27.55
2019-02-21T10:43:41.053Z,27.51
2019-02-21T10:46:12.855Z,27.50
2019-02-21T10:48:44.426Z,27.33
2019-02-21T10:51:16.327Z,27.57
2019-02-21T10:53:48.792Z,27.64
2019-02-21T10:56:20.467Z,27.80
2019-02-21T10:58:52.304Z,27.80
2019-02-21T11:01:24.110Z,27.62
2019-02-21T11:03:56.192Z,27.45
2019-02-21T11:06:27.643Z,27.48
2019-02-21T11:08:59.464Z,27.49
2019-02-21T11:11:31.854Z,27.51
2019-02-21T11:14:03.794Z,27.35
2019-02-21T11:16:35.695Z,27.35
2019-02-21T11:19:07.489Z,27.29
2019-02-21T11:21:39.225Z,27.29
2019-02-21T11:24:10.987Z,27.29
2019-02-21T11:26:42.762Z,27.25
2019-02-21T11:29:14.488Z,27.25
2019-02-21T11:31:46.463Z,27.09
2019-02-21T11:34:18.561Z,27.19
2019-02-21T11:36:50.293Z,27.11
2019-02-21T11:39:22.114Z,27.03
2019-02-21T11:41:54.308Z,26.98
2019-02-21T11:44:27.361Z,27.01
2019-02-21T11:46:59.303Z,26.64
2019-02-21T11:49:31.060Z,26.64
2019-02-21T11:52:09.888Z,26.50
2019-02-21T11:54:36.387Z,26.48
2019-02-21T11:57:08.178Z,26.48
2019-02-21T11:59:40.396Z,26.36
2019-02-21T12:02:12.512Z,26.31
2019-02-21T12:04:44.484Z,26.20
2019-02-21T12:07:16.667Z,26.20
2019-02-21T12:09:48.665Z,26.27
2019-02-21T12:12:20.895Z,26.26
2019-02-21T12:14:52.936Z,26.25
2019-02-21T12:17:24.342Z,26.22
2019-02-21T12:19:56.241Z,26.14
2019-02-21T12:22:28.031Z,26.14
2019-02-21T12:24:59.502Z,26.04
2019-02-21T12:27:31.339Z,25.93
2019-02-21T12:30:03.695Z,25.94
2019-02-21T12:32:35.969Z,25.94
2019-02-21T12:35:08.875Z,25.86
2019-02-21T12:37:41.992Z,25.83
2019-02-21T12:40:15.722Z,25.83
2019-02-21T12:42:47.829Z,25.74
2019-02-21T12:45:20.397Z,25.74
2019-02-21T12:47:54.016Z,25.68
2019-02-21T12:50:25.924Z,25.63
2019-02-21T12:52:57.821Z,25.60
2019-02-21T12:55:31.793Z,25.59
2019-02-21T12:58:03.344Z,25.59
2019-02-21T13:00:36.639Z,25.53
2019-02-21T13:03:08.387Z,25.59
2019-02-21T13:05:41.387Z,25.47
2019-02-21T13:08:13.869Z,25.46
2019-02-21T13:10:45.913Z,25.48
2019-02-21T13:13:17.676Z,25.43
2019-02-21T13:15:49.726Z,25.33
2019-02-21T13:18:21.046Z,25.38
2019-02-21T13:20:52.340Z,25.38
2019-02-21T13:23:23.881Z,25.33
2019-02-21T13:25:55.349Z,25.33
2019-02-21T13:28:26.938Z,25.24
2019-02-21T13:30:58.872Z,25.22
2019-02-21T13:33:30.607Z,25.22
2019-02-21T13:36:02.484Z,25.12
2019-02-21T13:38:33.894Z,25.12
2019-02-21T13:41:05.887Z,24.98
2019-02-21T13:43:37.354Z,24.98
2019-02-21T13:46:14.679Z,25.02
2019-02-21T13:48:56.875Z,24.93
2019-02-21T13:51:28.697Z,24.93
2019-02-21T13:54:00.406Z,24.78
2019-02-21T13:56:32.336Z,24.74
2019-02-21T13:59:04.376Z,24.74
2019-02-21T14:01:36.370Z,24.65
2019-02-21T14:04:08.661Z,24.65
2019-02-21T14:06:40.542Z,24.49
2019-02-21T14:09:12.508Z,24.49
2019-02-21T14:11:44.286Z,24.54
2019-02-21T14:14:16.206Z,24.58
2019-02-21T14:16:48.040Z,24.56
2019-02-21T14:19:19.520Z,24.56
2019-02-21T14:21:51.452Z,24.42
2019-02-21T14:24:23.268Z,24.42
2019-02-21T14:26:54.941Z,24.45
2019-02-21T14:29:38.277Z,24.46
2019-02-21T14:32:02.821Z,24.42
2019-02-21T14:34:34.787Z,24.42
2019-02-21T14:37:06.241Z,24.23
2019-02-21T14:39:37.867Z,24.23
2019-02-21T14:42:09.261Z,24.08
2019-02-21T14:44:40.757Z,24.08
2019-02-21T14:47:12.496Z,24.12
2019-02-21T14:49:44.073Z,24.13
2019-02-21T14:52:15.807Z,24.17
2019-02-21T14:54:47.369Z,24.17
2019-02-21T14:57:19.508Z,24.18
2019-02-21T14:59:51.490Z,24.18
2019-02-21T15:02:23.123Z,24.16
2019-02-21T15:04:54.744Z,24.19
2019-02-21T15:07:26.485Z,24.19
2019-02-21T15:09:58.382Z,24.12
2019-02-21T15:12:30.142Z,24.19
2019-02-21T15:15:01.800Z,24.61
2019-02-21T15:17:33.312Z,24.61
2019-02-21T15:20:05.390Z,24.13
2019-02-21T15:22:37.214Z,24.13
2019-02-21T15:25:09.534Z,24.15
2019-02-21T15:27:41.387Z,24.08
2019-02-21T15:30:15.398Z,24.02
2019-02-21T15:32:47.112Z,23.91
2019-02-21T15:35:19.576Z,23.92
2019-02-21T15:37:51.458Z,23.89
2019-02-21T15:40:23.299Z,23.80
2019-02-21T15:42:55.040Z,23.81
2019-02-21T15:45:28.796Z,23.81
2019-02-21T15:48:00.506Z,23.71
2019-02-21T15:50:32.326Z,23.71
2019-02-21T15:53:04.040Z,23.63
2019-02-21T15:55:36.895Z,23.53
2019-02-21T15:58:08.644Z,23.53
2019-02-21T16:00:41.463Z,23.59
2019-02-21T16:03:13.110Z,23.54
2019-02-21T16:05:45.100Z,23.35
2019-02-21T16:08:17.016Z,23.27
2019-02-21T16:10:48.781Z,23.27
2019-02-21T16:13:20.782Z,23.41
2019-02-21T16:15:52.868Z,23.41
2019-02-21T16:18:24.926Z,23.10
2019-02-21T16:20:56.799Z,23.22
2019-02-21T16:23:28.250Z,23.22
2019-02-21T16:26:00.033Z,23.30
2019-02-21T16:28:32.450Z,23.04
2019-02-21T16:31:04.455Z,23.04
2019-02-21T16:33:36.311Z,23.18
2019-02-21T16:36:08.239Z,23.19
2019-02-21T16:38:40.052Z,23.19
2019-02-21T16:41:12.684Z,23.02
2019-02-21T16:43:44.753Z,23.20
2019-02-21T16:46:16.895Z,23.03
2019-02-21T16:48:48.682Z,23.06
2019-02-21T16:51:22.281Z,23.06
2019-02-21T16:53:54.256Z,23.04
2019-02-21T16:56:26.725Z,23.06
2019-02-21T16:58:58.678Z,23.06
2019-02-21T17:01:30.527Z,22.80
2019-02-21T17:04:02.523Z,22.91
2019-02-21T17:06:34.555Z,22.91
2019-02-21T17:09:08.599Z,22.74
2019-02-21T17:11:41.711Z,22.70
2019-02-21T17:14:13.649Z,22.70
2019-02-21T17:16:45.631Z,22.72
2019-02-21T17:19:17.828Z,22.85
2019-02-21T17:21:49.898Z,22.85
2019-02-21T17:24:21.914Z,22.54
2019-02-21T17:26:54.477Z,22.51
2019-02-21T17:29:26.314Z,22.51
2019-02-21T17:31:57.999Z,22.70
2019-02-21T17:34:29.540Z,22.66
2019-02-21T17:37:01.255Z,22.66
2019-02-21T17:39:33.702Z,22.63
2019-02-21T17:42:05.404Z,22.85
2019-02-21T17:44:37.198Z,22.59
2019-02-21T17:47:09.218Z,22.59
2019-02-21T17:49:41.322Z,22.45
2019-02-21T17:52:13.470Z,22.51
2019-02-21T17:54:45.435Z,22.59
2019-02-21T17:57:17.298Z,22.59
2019-02-21T17:59:49.085Z,22.58
2019-02-21T18:02:20.875Z,22.45
2019-02-21T18:04:52.982Z,22.13
2019-02-21T18:07:35.795Z,22.37
2019-02-21T18:09:58.642Z,22.09
2019-02-21T18:12:30.410Z,22.09
2019-02-21T18:15:02.269Z,22.18
2019-02-21T18:17:35.551Z,22.32
2019-02-21T18:20:07.899Z,22.32
2019-02-21T18:22:39.583Z,22.10
2019-02-21T18:25:17.992Z,22.28
2019-02-21T18:27:49.723Z,22.08
2019-02-21T18:30:21.929Z,22.10
2019-02-21T18:32:53.780Z,22.10
2019-02-21T18:35:25.571Z,22.26
2019-02-21T18:37:57.624Z,22.26
2019-02-21T18:40:29.283Z,22.26
2019-02-21T18:43:00.918Z,22.34
2019-02-21T18:45:32.643Z,22.26
2019-02-21T18:48:04.686Z,22.26
2019-02-21T18:50:38.391Z,22.34
2019-02-21T18:53:09.805Z,22.29
2019-02-21T18:55:41.692Z,22.29
2019-02-21T18:58:13.201Z,22.29
2019-02-21T19:00:45.123Z,22.29
2019-02-21T19:03:17.634Z,22.35
2019-02-21T19:05:49.413Z,22.28
2019-02-21T19:08:21.349Z,22.07
2019-02-21T19:10:53.109Z,22.17
2019-02-21T19:13:24.816Z,22.17
2019-02-21T19:15:57.118Z,22.16
2019-02-21T19:18:28.853Z,22.23
2019-02-21T19:21:00.693Z,22.06
2019-02-21T19:23:32.745Z,22.06
2019-02-21T19:26:04.633Z,22.04
2019-02-21T19:28:36.639Z,21.91
2019-02-21T19:31:12.811Z,21.83
2019-02-21T19:33:44.729Z,21.98
2019-02-21T19:36:16.649Z,21.93
2019-02-21T19:38:48.409Z,21.83
2019-02-21T19:41:20.131Z,21.86
2019-02-21T19:43:52.057Z,21.79
2019-02-21T19:46:24.745Z,21.81
2019-02-21T19:48:56.557Z,21.81
2019-02-21T19:51:28.587Z,21.77
2019-02-21T19:54:00.401Z,21.63
2019-02-21T19:56:32.508Z,21.73
2019-02-21T19:59:04.366Z,21.73
2019-02-21T20:01:36.203Z,21.68
2019-02-21T20:04:07.986Z,21.71
2019-02-21T20:06:39.776Z,21.71
2019-02-21T20:09:12.757Z,21.50
2019-02-21T20:11:44.758Z,21.50
2019-02-21T20:14:16.325Z,21.65
2019-02-21T20:16:48.851Z,21.72
2019-02-21T20:19:20.578Z,21.64
2019-02-21T20:21:54.419Z,21.37
2019-02-21T20:24:25.648Z,21.37
2019-02-21T20:27:00.159Z,21.33
2019-02-21T20:29:31.225Z,21.54
2019-02-21T20:32:02.890Z,21.54
2019-02-21T20:34:35.508Z,21.44
2019-02-21T20:37:07.382Z,21.43
2019-02-21T20:39:39.144Z,21.33
2019-02-21T20:42:10.892Z,21.33
2019-02-21T20:44:42.512Z,21.28
2019-02-21T20:47:14.389Z,21.45
2019-02-21T20:49:45.996Z,21.36
2019-02-21T20:52:17.859Z,21.36
2019-02-21T20:54:49.551Z,21.16
2019-02-21T20:57:21.263Z,21.14
2019-02-21T20:59:53.009Z,21.19
2019-02-21T21:02:24.977Z,21.32
2019-02-21T21:04:57.035Z,21.34
2019-02-21T21:07:28.932Z,21.34
2019-02-21T21:10:00.560Z,21.34
2019-02-21T21:12:32.177Z,21.22
2019-02-21T21:15:03.871Z,21.25
2019-02-21T21:17:37.238Z,21.25
2019-02-21T21:20:16.647Z,21.38
2019-02-21T21:22:44.195Z,21.38
2019-02-21T21:25:16.507Z,21.16
2019-02-21T21:27:48.416Z,21.28
2019-02-21T21:30:20.158Z,21.28
2019-02-21T21:32:51.691Z,21.32
2019-02-21T21:35:23.316Z,21.26
2019-02-21T21:37:55.190Z,21.26
2019-02-21T21:40:26.991Z,21.21
2019-02-21T21:42:58.877Z,21.28
2019-02-21T21:45:30.589Z,21.28
2019-02-21T21:48:02.351Z,21.23
2019-02-21T21:50:35.239Z,21.16
2019-02-21T21:53:07.096Z,21.12
2019-02-21T21:55:39.167Z,21.12
2019-02-21T21:58:12.894Z,21.11
2019-02-21T22:00:44.553Z,21.13
2019-02-21T22:03:16.518Z,21.08
2019-02-21T22:05:48.141Z,21.15
2019-02-21T22:08:19.961Z,21.15
2019-02-21T22:10:52.217Z,21.07
2019-02-21T22:13:23.803Z,20.95
2019-02-21T22:15:55.453Z,20.95
2019-02-21T22:18:27.160Z,21.03
2019-02-21T22:20:58.813Z,21.12
2019-02-21T22:23:30.548Z,20.98
2019-02-21T22:26:02.320Z,21.01
2019-02-21T22:28:34.032Z,20.94
2019-02-21T22:31:05.671Z,20.89
2019-02-21T22:33:37.346Z,20.88
2019-02-21T22:36:09.070Z,20.88
2019-02-21T22:38:40.646Z,20.85
2019-02-21T22:41:12.459Z,20.70
2019-02-21T22:43:44.470Z,20.75
2019-02-21T22:46:16.243Z,20.96
2019-02-21T22:48:48.025Z,20.96
2019-02-21T22:51:19.776Z,20.81
2019-02-21T22:53:51.502Z,20.81
2019-02-21T22:56:23.081Z,21.01
2019-02-21T22:58:55.000Z,20.96
2019-02-21T23:01:47.143Z,20.91
2019-02-21T23:04:58.222Z,20.75
2019-02-21T23:07:49.781Z,20.62
2019-02-21T23:10:21.337Z,20.62
2019-02-21T23:12:53.152Z,20.74
2019-02-21T23:15:24.613Z,20.54
2019-02-21T23:17:56.323Z,20.77
2019-02-21T23:20:28.112Z,20.77
2019-02-21T23:22:59.688Z,20.64
2019-02-21T23:25:32.431Z,20.45
2019-02-21T23:28:04.206Z,20.36
2019-02-21T23:30:35.685Z,20.36
2019-02-21T23:33:07.800Z,20.48
2019-02-21T23:35:39.112Z,20.48
2019-02-21T23:38:10.939Z,20.58
2019-02-21T23:40:42.762Z,20.58
2019-02-21T23:43:15.915Z,20.54
2019-02-21T23:45:47.971Z,20.48
2019-02-21T23:48:19.828Z,20.48
2019-02-21T23:50:51.531Z,20.47
2019-02-21T23:53:23.643Z,20.56
2019-02-21T23:55:55.297Z,20.23
2019-02-21T23:58:26.944Z,20.23
